createdAt,value
2019-03-27T00:00:13.332Z,26.8
2019-03-27T00:01:15.832Z,26.8
2019-03-27T00:02:18.315Z,26.9
2019-03-27T00:03:20.506Z,26.9
2019-03-27T00:04:22.985Z,27
2019-03-27T00:05:25.450Z,26.8
2019-03-27T00:06:27.383Z,26.7
2019-03-27T00:07:29.860Z,26.8
2019-03-27T00:08:32.045Z,26.6
2019-03-27T00:09:34.235Z,26.8
2019-03-27T00:10:36.445Z,26.8
2019-03-27T00:11:38.909Z,26.8
2019-03-27T00:12:41.402Z,27
2019-03-27T00:13:43.875Z,26.8
2019-03-27T00:14:46.109Z,26.9
2019-03-27T00:15:48.598Z,26.8
2019-03-27T00:16:51.072Z,26.8
2019-03-27T00:17:53.570Z,27
2019-03-27T00:18:56.102Z,26.8
2019-03-27T00:19:58.594Z,26.9
2019-03-27T00:21:00.958Z,27
2019-03-27T00:22:03.150Z,27
2019-03-27T00:23:05.614Z,26.8
2019-03-27T00:24:07.806Z,27.1
2019-03-27T00:25:10.281Z,26.9
2019-03-27T00:26:12.254Z,26.9
2019-03-27T00:27:14.740Z,27
2019-03-27T00:28:17.209Z,27.1
2019-03-27T00:29:19.690Z,27
2019-03-27T00:30:21.880Z,27
2019-03-27T00:31:24.161Z,27.1
2019-03-27T00:32:26.641Z,27
2019-03-27T00:33:29.167Z,27.1
2019-03-27T00:34:31.626Z,27.3
2019-03-27T00:35:33.851Z,27
2019-03-27T00:36:36.052Z,27
2019-03-27T00:37:38.535Z,27.1
2019-03-27T00:38:41.015Z,27
2019-03-27T00:39:43.486Z,27.1
2019-03-27T00:40:45.992Z,27
2019-03-27T00:41:48.173Z,27
2019-03-27T00:42:50.352Z,27
2019-03-27T00:43:52.822Z,27.1
2019-03-27T00:44:55.019Z,27.1
2019-03-27T00:45:57.542Z,27.2
2019-03-27T00:47:00.018Z,27.1
2019-03-27T00:48:02.482Z,27.1
2019-03-27T00:49:04.384Z,27.4
2019-03-27T00:50:06.853Z,27.1
2019-03-27T00:51:09.328Z,27.3
2019-03-27T00:52:11.817Z,27.3
2019-03-27T00:53:14.003Z,27.4
2019-03-27T00:54:16.467Z,27.4
2019-03-27T00:55:18.945Z,27.5
2019-03-27T00:56:21.436Z,27.3
2019-03-27T00:57:23.902Z,27.3
2019-03-27T00:58:26.385Z,27.2
2019-03-27T00:59:28.857Z,27.5
2019-03-27T01:00:31.322Z,27.3
2019-03-27T01:01:33.790Z,27.4
2019-03-27T01:02:36.275Z,27.5
2019-03-27T01:03:38.741Z,27.5
2019-03-27T01:04:40.964Z,27.4
2019-03-27T01:05:43.435Z,27.5
2019-03-27T01:06:45.906Z,27.5
2019-03-27T01:07:52.847Z,27.6
2019-03-27T01:08:55.317Z,27.4
2019-03-27T01:09:57.238Z,27.5
2019-03-27T01:10:59.712Z,27.4
2019-03-27T01:12:01.922Z,27.4
2019-03-27T01:13:04.113Z,27.5
2019-03-27T01:14:06.580Z,27.4
2019-03-27T01:15:08.851Z,27.6
2019-03-27T01:16:11.351Z,27.4
2019-03-27T01:17:13.838Z,27.7
2019-03-27T01:18:16.343Z,27.5
2019-03-27T01:19:18.817Z,27.6
2019-03-27T01:20:21.306Z,27.6
2019-03-27T01:21:23.799Z,27.6
2019-03-27T01:22:26.282Z,27.6
2019-03-27T01:23:28.753Z,27.6
2019-03-27T01:24:30.957Z,27.6
2019-03-27T01:25:33.178Z,27.4
2019-03-27T01:26:35.635Z,27.4
2019-03-27T01:27:37.838Z,27.6
2019-03-27T01:28:40.053Z,27.6
2019-03-27T01:29:42.289Z,27.4
2019-03-27T01:30:44.765Z,27.7
2019-03-27T01:31:46.999Z,27.4
2019-03-27T01:32:49.485Z,27.9
2019-03-27T01:33:51.952Z,27.5
2019-03-27T01:34:54.164Z,27.8
2019-03-27T01:35:56.629Z,27.7
2019-03-27T01:36:58.832Z,27.5
2019-03-27T01:38:01.300Z,27.5
2019-03-27T01:39:03.765Z,27.6
2019-03-27T01:40:06.267Z,27.4
2019-03-27T01:41:08.474Z,27.7
2019-03-27T01:42:10.944Z,27.6
2019-03-27T01:43:13.418Z,27.6
2019-03-27T01:44:15.618Z,27.8
2019-03-27T01:45:18.089Z,27.5
2019-03-27T01:46:20.550Z,27.5
2019-03-27T01:47:22.748Z,27.6
2019-03-27T01:48:24.921Z,27.5
2019-03-27T01:49:27.411Z,27.8
2019-03-27T01:50:29.611Z,27.6
2019-03-27T01:51:32.085Z,27.7
2019-03-27T01:52:34.286Z,27.7
2019-03-27T01:53:36.761Z,27.7
2019-03-27T01:54:38.941Z,27.6
2019-03-27T01:55:41.133Z,27.5
2019-03-27T01:56:43.613Z,27.6
2019-03-27T01:57:46.087Z,27.7
2019-03-27T01:58:48.292Z,27.6
2019-03-27T01:59:49.944Z,27.8
2019-03-27T02:00:52.145Z,27.7
2019-03-27T02:01:54.631Z,27.6
2019-03-27T02:02:56.823Z,27.5
2019-03-27T02:03:59.041Z,27.8
2019-03-27T02:05:01.006Z,27.6
2019-03-27T02:06:03.473Z,27.8
2019-03-27T02:07:06.008Z,27.7
2019-03-27T02:08:08.484Z,27.6
2019-03-27T02:09:10.953Z,27.6
2019-03-27T02:10:12.874Z,27.6
2019-03-27T02:11:15.364Z,27.6
2019-03-27T02:12:17.833Z,27.6
2019-03-27T02:13:20.299Z,27.8
2019-03-27T02:14:22.787Z,27.8
2019-03-27T02:15:24.690Z,27.8
2019-03-27T02:16:27.166Z,27.8
2019-03-27T02:17:29.361Z,27.6
2019-03-27T02:18:31.564Z,27.5
2019-03-27T02:19:33.829Z,27.8
2019-03-27T02:20:36.291Z,27.7
2019-03-27T02:21:38.770Z,27.9
2019-03-27T02:22:40.950Z,27.8
2019-03-27T02:23:43.448Z,27.8
2019-03-27T02:24:45.762Z,27.9
2019-03-27T02:25:48.263Z,27.8
2019-03-27T02:26:50.747Z,27.8
2019-03-27T02:27:52.953Z,27.7
2019-03-27T02:28:55.149Z,27.7
2019-03-27T02:29:57.617Z,28
2019-03-27T02:30:59.827Z,27.7
2019-03-27T02:32:02.049Z,27.9
2019-03-27T02:33:04.538Z,28
2019-03-27T02:34:07.046Z,28
2019-03-27T02:35:09.361Z,27.9
2019-03-27T02:36:11.042Z,27.8
2019-03-27T02:37:13.528Z,27.8
2019-03-27T02:38:15.821Z,27.7
2019-03-27T02:39:18.075Z,27.8
2019-03-27T02:40:20.541Z,27.8
2019-03-27T02:41:23.023Z,27.8
2019-03-27T02:42:25.494Z,27.6
2019-03-27T02:43:27.976Z,27.8
2019-03-27T02:44:30.462Z,27.8
2019-03-27T02:45:32.933Z,27.7
2019-03-27T02:46:35.404Z,28
2019-03-27T02:47:37.907Z,28
2019-03-27T02:48:40.383Z,27.8
2019-03-27T02:49:42.880Z,28
2019-03-27T02:50:45.101Z,27.8
2019-03-27T02:51:47.294Z,27.9
2019-03-27T02:52:49.627Z,27.8
2019-03-27T02:53:52.123Z,27.8
2019-03-27T02:54:54.623Z,27.8
2019-03-27T02:55:56.849Z,27.8
2019-03-27T02:56:59.342Z,28
2019-03-27T02:58:01.823Z,28
2019-03-27T02:59:04.321Z,27.9
2019-03-27T03:00:06.522Z,27.9
2019-03-27T03:01:08.748Z,27.9
2019-03-27T03:02:11.211Z,27.8
2019-03-27T03:03:13.689Z,27.7
2019-03-27T03:04:16.205Z,28.1
2019-03-27T03:05:18.663Z,27.9
2019-03-27T03:06:21.144Z,27.8
2019-03-27T03:07:23.308Z,28
2019-03-27T03:08:25.494Z,27.9
2019-03-27T03:09:27.727Z,27.9
2019-03-27T03:10:29.984Z,28
2019-03-27T03:11:32.483Z,27.8
2019-03-27T03:12:34.698Z,28
2019-03-27T03:13:37.199Z,27.9
2019-03-27T03:14:39.391Z,27.9
2019-03-27T03:15:41.857Z,27.7
2019-03-27T03:16:44.346Z,28
2019-03-27T03:17:46.531Z,27.8
2019-03-27T03:18:48.889Z,27.8
2019-03-27T03:19:51.367Z,27.8
2019-03-27T03:20:53.563Z,28.1
2019-03-27T03:21:56.024Z,27.9
2019-03-27T03:22:58.240Z,28.1
2019-03-27T03:24:00.725Z,28
2019-03-27T03:25:02.812Z,28
2019-03-27T03:26:05.037Z,27.8
2019-03-27T03:27:07.504Z,28.1
2019-03-27T03:28:09.976Z,28
2019-03-27T03:29:12.437Z,27.8
2019-03-27T03:30:14.664Z,28
2019-03-27T03:31:17.176Z,27.8
2019-03-27T03:32:19.721Z,28.1
2019-03-27T03:33:22.234Z,27.9
2019-03-27T03:34:24.505Z,27.8
2019-03-27T03:35:27.092Z,27.9
2019-03-27T03:36:29.295Z,27.8
2019-03-27T03:37:31.767Z,27.8
2019-03-27T03:38:33.974Z,27.6
2019-03-27T03:39:36.183Z,27.9
2019-03-27T03:40:38.682Z,27.7
2019-03-27T03:41:41.158Z,27.5
2019-03-27T03:42:43.401Z,27.8
2019-03-27T03:43:45.882Z,27.7
2019-03-27T03:44:48.347Z,27.8
2019-03-27T03:45:50.813Z,27.7
2019-03-27T03:46:59.809Z,27.8
2019-03-27T03:47:58.323Z,27.8
2019-03-27T03:49:00.803Z,27.6
2019-03-27T03:50:03.276Z,28.1
2019-03-27T03:51:05.747Z,27.8
2019-03-27T03:52:07.696Z,27.9
2019-03-27T03:53:10.182Z,27.8
2019-03-27T03:54:12.811Z,27.7
2019-03-27T03:55:15.288Z,28
2019-03-27T03:56:17.767Z,27.7
2019-03-27T03:57:20.254Z,28
2019-03-27T03:58:22.734Z,27.8
2019-03-27T03:59:25.208Z,27.9
2019-03-27T04:00:27.421Z,27.9
2019-03-27T04:01:29.936Z,27.8
2019-03-27T04:02:32.415Z,27.9
2019-03-27T04:03:34.905Z,27.8
2019-03-27T04:04:37.414Z,27.6
2019-03-27T04:05:39.550Z,28
2019-03-27T04:06:42.039Z,27.7
2019-03-27T04:07:44.506Z,27.7
2019-03-27T04:08:46.993Z,27.8
2019-03-27T04:09:49.488Z,27.6
2019-03-27T04:10:51.961Z,27.6
2019-03-27T04:11:54.444Z,27.4
2019-03-27T04:12:56.923Z,27.4
2019-03-27T04:13:59.383Z,27.4
2019-03-27T04:15:01.590Z,27.6
2019-03-27T04:16:04.014Z,27.4
2019-03-27T04:17:16.610Z,27.4
2019-03-27T04:18:11.542Z,27.4
2019-03-27T04:19:13.724Z,27.5
2019-03-27T04:20:16.217Z,27.3
2019-03-27T04:21:18.440Z,27.3
2019-03-27T04:22:20.945Z,27.4
2019-03-27T04:23:23.423Z,27.4
2019-03-27T04:24:25.908Z,27.3
2019-03-27T04:25:28.381Z,27.3
2019-03-27T04:26:35.323Z,27.4
2019-03-27T04:27:37.804Z,27.4
2019-03-27T04:28:40.013Z,27.3
2019-03-27T04:29:42.216Z,27.2
2019-03-27T04:30:44.695Z,27.4
2019-03-27T04:31:46.880Z,27.1
2019-03-27T04:32:49.137Z,27.1
2019-03-27T04:33:51.622Z,27.1
2019-03-27T04:34:54.271Z,27.4
2019-03-27T04:35:57.054Z,27.3
2019-03-27T04:36:59.578Z,27
2019-03-27T04:38:02.072Z,27.3
2019-03-27T04:39:04.307Z,27.3
2019-03-27T04:40:06.831Z,27.3
2019-03-27T04:41:09.303Z,27.3
2019-03-27T04:42:11.509Z,27.2
2019-03-27T04:43:13.452Z,27.3
2019-03-27T04:44:15.934Z,27.1
2019-03-27T04:45:18.413Z,27.1
2019-03-27T04:46:20.609Z,27.2
2019-03-27T04:47:31.766Z,27.2
2019-03-27T04:48:27.916Z,27.1
2019-03-27T04:49:30.102Z,27.2
2019-03-27T04:50:32.574Z,27
2019-03-27T04:51:35.063Z,27.1
2019-03-27T04:52:37.543Z,27
2019-03-27T04:53:39.193Z,27.1
2019-03-27T04:54:41.685Z,27.2
2019-03-27T04:55:43.900Z,27.1
2019-03-27T04:56:45.842Z,27.1
2019-03-27T04:57:48.299Z,27.1
2019-03-27T04:58:50.773Z,27.2
2019-03-27T04:59:53.240Z,27.3
2019-03-27T05:00:55.158Z,27
2019-03-27T05:01:57.450Z,27.2
2019-03-27T05:02:59.926Z,26.9
2019-03-27T05:04:02.425Z,26.8
2019-03-27T05:05:04.371Z,27.3
2019-03-27T05:06:06.849Z,27.1
2019-03-27T05:07:09.324Z,27
2019-03-27T05:08:15.296Z,27
2019-03-27T05:09:17.774Z,26.9
2019-03-27T05:10:20.275Z,27.1
2019-03-27T05:11:22.741Z,27
2019-03-27T05:12:24.927Z,27
2019-03-27T05:13:27.405Z,27.2
2019-03-27T05:14:29.057Z,27
2019-03-27T05:15:31.272Z,26.9
2019-03-27T05:16:33.465Z,27.1
2019-03-27T05:17:45.487Z,26.9
2019-03-27T05:18:40.953Z,27
2019-03-27T05:19:43.415Z,27
2019-03-27T05:20:45.908Z,27.2
2019-03-27T05:21:48.375Z,27
2019-03-27T05:22:50.846Z,27.1
2019-03-27T05:23:52.751Z,27
2019-03-27T05:24:55.277Z,26.9
2019-03-27T05:25:57.753Z,27.1
2019-03-27T05:27:00.224Z,27
2019-03-27T05:28:02.425Z,27
2019-03-27T05:29:04.077Z,26.8
2019-03-27T05:30:06.565Z,27
2019-03-27T05:31:09.034Z,26.9
2019-03-27T05:32:11.509Z,27
2019-03-27T05:33:13.987Z,27
2019-03-27T05:34:16.485Z,26.8
2019-03-27T05:35:18.951Z,26.9
2019-03-27T05:36:21.421Z,27
2019-03-27T05:37:23.895Z,27
2019-03-27T05:38:26.373Z,26.9
2019-03-27T05:39:28.547Z,27
2019-03-27T05:40:30.484Z,27
2019-03-27T05:41:33.017Z,27
2019-03-27T05:42:35.481Z,26.8
2019-03-27T05:43:37.952Z,26.9
2019-03-27T05:44:40.435Z,26.8
2019-03-27T05:45:42.915Z,27
2019-03-27T05:46:45.393Z,27
2019-03-27T05:47:58.809Z,26.9
2019-03-27T05:48:52.845Z,26.9
2019-03-27T05:49:55.043Z,27
2019-03-27T05:50:57.525Z,26.7
2019-03-27T05:52:00.005Z,26.9
2019-03-27T05:53:02.478Z,26.9
2019-03-27T05:54:04.965Z,27
2019-03-27T05:55:07.156Z,27.1
2019-03-27T05:56:09.628Z,26.9
2019-03-27T05:57:11.794Z,27
2019-03-27T05:58:13.985Z,26.8
2019-03-27T05:59:16.479Z,27.1
2019-03-27T06:00:18.945Z,27.1
2019-03-27T06:01:21.439Z,27
2019-03-27T06:02:23.949Z,26.9
2019-03-27T06:03:26.177Z,26.8
2019-03-27T06:04:28.367Z,27
2019-03-27T06:05:30.843Z,27
2019-03-27T06:06:33.391Z,27.2
2019-03-27T06:07:35.879Z,26.9
2019-03-27T06:08:37.805Z,26.9
2019-03-27T06:09:39.732Z,26.9
2019-03-27T06:10:41.937Z,26.9
2019-03-27T06:11:44.185Z,27
2019-03-27T06:12:46.397Z,26.9
2019-03-27T06:13:48.899Z,27
2019-03-27T06:14:51.393Z,27
2019-03-27T06:15:53.877Z,27
2019-03-27T06:16:56.401Z,26.8
2019-03-27T06:18:12.137Z,27
2019-03-27T06:19:03.602Z,27.1
2019-03-27T06:20:05.787Z,26.9
2019-03-27T06:21:08.269Z,26.8
2019-03-27T06:22:10.467Z,26.8
2019-03-27T06:23:16.725Z,26.9
2019-03-27T06:24:19.205Z,26.9
2019-03-27T06:25:21.387Z,27
2019-03-27T06:26:23.862Z,26.9
2019-03-27T06:27:26.324Z,26.9
2019-03-27T06:28:28.527Z,27
2019-03-27T06:29:30.758Z,26.8
2019-03-27T06:30:33.233Z,26.8
2019-03-27T06:31:35.740Z,27
2019-03-27T06:32:38.215Z,27.1
2019-03-27T06:33:40.687Z,26.9
2019-03-27T06:34:43.231Z,27
2019-03-27T06:35:45.697Z,26.9
2019-03-27T06:36:47.874Z,26.9
2019-03-27T06:37:50.357Z,27
2019-03-27T06:38:52.585Z,27
2019-03-27T06:39:54.833Z,27
2019-03-27T06:40:57.305Z,27
2019-03-27T06:41:59.516Z,26.7
2019-03-27T06:43:02.016Z,27
2019-03-27T06:44:04.498Z,27.1
2019-03-27T06:45:06.965Z,27.1
2019-03-27T06:46:09.462Z,27.1
2019-03-27T06:47:11.668Z,26.8
2019-03-27T06:48:25.366Z,26.9
2019-03-27T06:49:18.325Z,26.9
2019-03-27T06:50:20.787Z,27
2019-03-27T06:51:25.088Z,26.8
2019-03-27T06:52:30.747Z,26.7
2019-03-27T06:53:33.219Z,27
2019-03-27T06:54:35.377Z,26.9
2019-03-27T06:55:37.314Z,26.9
2019-03-27T06:56:39.786Z,26.9
2019-03-27T06:57:42.260Z,26.8
2019-03-27T06:58:54.217Z,27
2019-03-27T06:59:49.723Z,27
2019-03-27T07:00:51.665Z,27
2019-03-27T07:01:54.149Z,27
2019-03-27T07:02:56.641Z,26.9
2019-03-27T07:04:09.771Z,27
2019-03-27T07:05:03.808Z,26.9
2019-03-27T07:06:06.275Z,26.9
2019-03-27T07:07:08.762Z,27
2019-03-27T07:08:11.339Z,27.1
2019-03-27T07:09:13.817Z,26.9
2019-03-27T07:10:16.326Z,26.9
2019-03-27T07:11:18.529Z,26.9
2019-03-27T07:12:21.580Z,27
2019-03-27T07:13:24.141Z,27
2019-03-27T07:14:26.633Z,27
2019-03-27T07:15:29.116Z,26.8
2019-03-27T07:16:31.589Z,26.8
2019-03-27T07:17:33.798Z,27
2019-03-27T07:18:40.210Z,26.9
2019-03-27T07:19:41.267Z,26.9
2019-03-27T07:20:43.735Z,27
2019-03-27T07:21:45.947Z,26.8
2019-03-27T07:22:48.417Z,26.8
2019-03-27T07:23:50.912Z,26.9
2019-03-27T07:24:53.385Z,26.8
2019-03-27T07:25:55.849Z,26.7
2019-03-27T07:26:58.045Z,27
2019-03-27T07:28:00.247Z,26.7
2019-03-27T07:29:02.457Z,27
2019-03-27T07:30:04.642Z,27
2019-03-27T07:31:06.569Z,26.7
2019-03-27T07:32:08.739Z,27
2019-03-27T07:33:11.242Z,26.9
2019-03-27T07:34:13.726Z,26.9
2019-03-27T07:35:16.207Z,27
2019-03-27T07:36:18.692Z,26.9
2019-03-27T07:37:21.166Z,26.8
2019-03-27T07:38:23.638Z,26.8
2019-03-27T07:39:26.101Z,27
2019-03-27T07:40:28.586Z,26.7
2019-03-27T07:41:30.503Z,26.7
2019-03-27T07:42:32.975Z,26.8
2019-03-27T07:43:35.447Z,26.8
2019-03-27T07:44:37.928Z,26.6
2019-03-27T07:45:40.138Z,26.9
2019-03-27T07:46:42.609Z,26.6
2019-03-27T07:47:47.844Z,26.6
2019-03-27T07:48:54.015Z,26.9
2019-03-27T07:49:54.869Z,26.9
2019-03-27T07:50:57.332Z,27
2019-03-27T07:51:59.800Z,26.8
2019-03-27T07:53:01.744Z,26.9
2019-03-27T07:54:03.990Z,26.9
2019-03-27T07:55:18.618Z,26.8
2019-03-27T07:56:11.457Z,26.9
2019-03-27T07:57:13.659Z,27
2019-03-27T07:58:15.587Z,26.7
2019-03-27T07:59:17.792Z,26.6
2019-03-27T08:00:19.981Z,26.8
2019-03-27T08:01:22.174Z,26.9
2019-03-27T08:02:24.652Z,26.7
2019-03-27T08:03:27.204Z,26.9
2019-03-27T08:04:29.776Z,26.6
2019-03-27T08:05:32.347Z,26.8
2019-03-27T08:06:34.289Z,26.8
2019-03-27T08:07:36.465Z,26.7
2019-03-27T08:08:38.965Z,26.8
2019-03-27T08:09:40.900Z,26.8
2019-03-27T08:10:42.641Z,27
2019-03-27T08:11:45.106Z,26.9
2019-03-27T08:12:47.321Z,26.6
2019-03-27T08:13:49.528Z,26.8
2019-03-27T08:14:52.004Z,26.8
2019-03-27T08:15:54.273Z,26.8
2019-03-27T08:16:56.486Z,26.7
2019-03-27T08:17:58.407Z,26.9
2019-03-27T08:19:07.178Z,26.7
2019-03-27T08:20:05.619Z,26.8
2019-03-27T08:21:08.085Z,26.7
2019-03-27T08:22:10.551Z,26.9
2019-03-27T08:23:12.745Z,26.7
2019-03-27T08:24:15.215Z,26.9
2019-03-27T08:25:17.412Z,26.9
2019-03-27T08:26:19.882Z,26.9
2019-03-27T08:27:22.335Z,26.8
2019-03-27T08:28:24.824Z,26.8
2019-03-27T08:29:27.317Z,26.7
2019-03-27T08:30:29.294Z,26.6
2019-03-27T08:31:31.519Z,26.5
2019-03-27T08:32:34.964Z,26.7
2019-03-27T08:33:38.983Z,26.9
2019-03-27T08:34:41.466Z,26.6
2019-03-27T08:35:43.947Z,26.7
2019-03-27T08:36:46.453Z,26.6
2019-03-27T08:37:48.926Z,26.7
2019-03-27T08:38:51.465Z,26.8
2019-03-27T08:39:53.958Z,26.8
2019-03-27T08:40:56.427Z,26.7
2019-03-27T08:41:58.901Z,26.8
2019-03-27T08:43:01.375Z,26.8
2019-03-27T08:44:03.593Z,26.7
2019-03-27T08:45:06.065Z,26.8
2019-03-27T08:46:08.668Z,26.8
2019-03-27T08:47:11.136Z,26.9
2019-03-27T08:48:13.605Z,26.7
2019-03-27T08:49:22.064Z,26.6
2019-03-27T08:50:21.068Z,27
2019-03-27T08:51:23.545Z,26.8
2019-03-27T08:52:26.044Z,26.9
2019-03-27T08:53:28.253Z,26.7
2019-03-27T08:54:30.757Z,26.9
2019-03-27T08:55:33.243Z,26.7
2019-03-27T08:56:35.715Z,27
2019-03-27T08:57:37.928Z,27
2019-03-27T08:58:40.106Z,26.8
2019-03-27T08:59:42.583Z,26.8
2019-03-27T09:00:45.193Z,26.8
2019-03-27T09:01:47.727Z,27
2019-03-27T09:02:50.202Z,26.9
2019-03-27T09:03:52.685Z,27.1
2019-03-27T09:04:55.170Z,26.8
2019-03-27T09:05:57.337Z,26.9
2019-03-27T09:06:59.599Z,26.9
2019-03-27T09:08:02.067Z,27
2019-03-27T09:09:04.534Z,26.9
2019-03-27T09:10:07.017Z,27
2019-03-27T09:11:08.922Z,26.9
2019-03-27T09:12:11.405Z,26.8
2019-03-27T09:13:13.314Z,26.6
2019-03-27T09:14:15.804Z,26.7
2019-03-27T09:15:17.974Z,26.6
2019-03-27T09:16:20.432Z,26.7
2019-03-27T09:17:22.912Z,26.8
2019-03-27T09:18:25.094Z,26.7
2019-03-27T09:19:35.334Z,26.9
2019-03-27T09:20:32.544Z,26.9
2019-03-27T09:21:34.771Z,27
2019-03-27T09:22:37.251Z,26.8
2019-03-27T09:23:39.718Z,26.8
2019-03-27T09:24:42.186Z,26.7
2019-03-27T09:25:44.665Z,26.6
2019-03-27T09:26:47.140Z,26.8
2019-03-27T09:27:49.359Z,26.7
2019-03-27T09:28:51.872Z,26.7
2019-03-27T09:29:54.349Z,26.8
2019-03-27T09:30:56.857Z,26.8
2019-03-27T09:31:59.351Z,26.7
2019-03-27T09:33:01.561Z,26.7
2019-03-27T09:34:03.800Z,26.6
2019-03-27T09:35:05.987Z,26.7
2019-03-27T09:36:08.544Z,26.9
2019-03-27T09:37:11.671Z,27
2019-03-27T09:38:14.157Z,26.7
2019-03-27T09:39:16.619Z,26.7
2019-03-27T09:40:19.085Z,26.9
2019-03-27T09:41:21.623Z,26.7
2019-03-27T09:42:23.915Z,26.7
2019-03-27T09:43:26.144Z,27
2019-03-27T09:44:28.618Z,26.7
2019-03-27T09:45:31.105Z,26.9
2019-03-27T09:46:33.326Z,26.8
2019-03-27T09:47:35.797Z,26.7
2019-03-27T09:48:38.009Z,27.1
2019-03-27T09:49:49.195Z,26.8
2019-03-27T09:50:45.473Z,26.7
2019-03-27T09:51:48.004Z,26.8
2019-03-27T09:52:49.905Z,26.5
2019-03-27T09:53:53.218Z,26.7
2019-03-27T09:54:55.884Z,26.8
2019-03-27T09:55:58.091Z,26.8
2019-03-27T09:57:00.562Z,26.9
2019-03-27T09:58:02.763Z,26.9
2019-03-27T09:59:06.079Z,26.8
2019-03-27T10:00:08.637Z,26.8
2019-03-27T10:01:11.124Z,26.9
2019-03-27T10:02:13.065Z,26.6
2019-03-27T10:03:15.609Z,26.9
2019-03-27T10:04:18.101Z,26.8
2019-03-27T10:05:20.300Z,26.9
2019-03-27T10:06:22.809Z,26.8
2019-03-27T10:07:25.006Z,26.8
2019-03-27T10:08:27.482Z,26.7
2019-03-27T10:09:29.390Z,26.9
2019-03-27T10:10:31.865Z,26.8
2019-03-27T10:11:34.044Z,26.9
2019-03-27T10:12:36.511Z,26.9
2019-03-27T10:13:38.721Z,26.8
2019-03-27T10:14:41.243Z,26.8
2019-03-27T10:15:43.472Z,27
2019-03-27T10:16:45.974Z,26.9
2019-03-27T10:17:48.456Z,27
2019-03-27T10:18:50.672Z,26.9
2019-03-27T10:20:03.063Z,26.8
2019-03-27T10:20:58.143Z,26.8
2019-03-27T10:22:00.074Z,26.8
2019-03-27T10:23:02.000Z,26.8
2019-03-27T10:24:04.211Z,26.8
2019-03-27T10:25:06.672Z,26.9
2019-03-27T10:26:08.867Z,27
2019-03-27T10:27:11.333Z,26.8
2019-03-27T10:28:13.274Z,26.9
2019-03-27T10:29:15.462Z,26.6
2019-03-27T10:30:18.012Z,26.8
2019-03-27T10:31:20.494Z,26.7
2019-03-27T10:32:22.968Z,26.8
2019-03-27T10:33:25.448Z,26.7
2019-03-27T10:34:27.913Z,26.8
2019-03-27T10:35:30.130Z,26.8
2019-03-27T10:36:32.064Z,26.6
2019-03-27T10:37:34.544Z,26.9
2019-03-27T10:38:37.033Z,26.8
2019-03-27T10:39:43.219Z,26.8
2019-03-27T10:40:45.390Z,26.7
2019-03-27T10:41:47.867Z,26.7
2019-03-27T10:42:50.362Z,26.9
2019-03-27T10:43:52.564Z,26.8
2019-03-27T10:44:55.058Z,26.9
2019-03-27T10:45:56.979Z,26.8
2019-03-27T10:46:59.179Z,26.8
2019-03-27T10:48:01.661Z,26.9
2019-03-27T10:49:04.123Z,26.8
2019-03-27T10:50:16.874Z,26.9
2019-03-27T10:51:11.582Z,26.9
2019-03-27T10:52:13.784Z,26.8
2019-03-27T10:53:16.053Z,26.8
2019-03-27T10:54:18.526Z,26.7
2019-03-27T10:55:21.013Z,26.6
2019-03-27T10:56:23.486Z,26.9
2019-03-27T10:57:25.656Z,26.9
2019-03-27T10:58:28.303Z,26.9
2019-03-27T10:59:30.962Z,26.8
2019-03-27T11:00:33.182Z,26.9
2019-03-27T11:01:35.412Z,26.7
2019-03-27T11:02:37.885Z,26.8
2019-03-27T11:03:39.789Z,26.7
2019-03-27T11:04:41.987Z,27
2019-03-27T11:05:43.895Z,27
2019-03-27T11:06:46.363Z,26.8
2019-03-27T11:07:48.834Z,26.8
2019-03-27T11:08:51.378Z,26.8
2019-03-27T11:09:53.842Z,26.9
2019-03-27T11:10:56.416Z,26.9
2019-03-27T11:11:58.908Z,26.6
2019-03-27T11:13:01.391Z,26.9
2019-03-27T11:14:03.864Z,26.7
2019-03-27T11:15:06.080Z,26.7
2019-03-27T11:16:08.114Z,26.9
2019-03-27T11:17:10.318Z,26.7
2019-03-27T11:18:12.797Z,26.7
2019-03-27T11:19:15.274Z,26.7
2019-03-27T11:20:29.911Z,26.7
2019-03-27T11:21:22.723Z,26.8
2019-03-27T11:22:24.998Z,26.8
2019-03-27T11:23:27.496Z,26.6
2019-03-27T11:24:29.984Z,26.7
2019-03-27T11:25:33.194Z,26.7
2019-03-27T11:26:35.893Z,26.8
2019-03-27T11:27:38.364Z,26.7
2019-03-27T11:28:40.564Z,26.7
2019-03-27T11:29:43.090Z,26.6
2019-03-27T11:30:48.190Z,26.8
2019-03-27T11:31:50.281Z,26.7
2019-03-27T11:32:52.266Z,26.7
2019-03-27T11:33:54.240Z,26.6
2019-03-27T11:34:56.731Z,26.6
2019-03-27T11:35:58.939Z,26.5
2019-03-27T11:37:01.421Z,26.7
2019-03-27T11:38:03.892Z,26.7
2019-03-27T11:39:06.370Z,26.7
2019-03-27T11:40:08.843Z,26.6
2019-03-27T11:41:12.295Z,26.6
2019-03-27T11:42:14.908Z,26.8
2019-03-27T11:43:17.092Z,26.7
2019-03-27T11:44:18.757Z,26.6
2019-03-27T11:45:20.932Z,26.8
2019-03-27T11:46:23.122Z,26.4
2019-03-27T11:47:25.337Z,26.6
2019-03-27T11:48:27.262Z,26.7
2019-03-27T11:49:29.706Z,26.7
2019-03-27T11:50:43.983Z,26.6
2019-03-27T11:51:36.925Z,26.6
2019-03-27T11:52:39.162Z,26.7
2019-03-27T11:53:41.640Z,26.5
2019-03-27T11:54:44.102Z,26.6
2019-03-27T11:55:46.303Z,26.7
2019-03-27T11:56:48.512Z,26.6
2019-03-27T11:57:51.065Z,26.6
2019-03-27T11:58:53.270Z,26.7
2019-03-27T11:59:55.739Z,26.6
2019-03-27T12:00:58.212Z,26.7
2019-03-27T12:02:00.677Z,26.6
2019-03-27T12:03:03.142Z,26.5
2019-03-27T12:04:05.129Z,26.5
2019-03-27T12:05:07.613Z,26.6
2019-03-27T12:06:10.080Z,26.7
2019-03-27T12:07:12.548Z,26.7
2019-03-27T12:08:14.723Z,26.6
2019-03-27T12:09:17.198Z,26.7
2019-03-27T12:10:19.667Z,26.6
2019-03-27T12:11:22.150Z,26.7
2019-03-27T12:12:24.332Z,26.8
2019-03-27T12:13:26.821Z,26.5
2019-03-27T12:14:29.300Z,26.5
2019-03-27T12:15:31.768Z,26.5
2019-03-27T12:16:34.242Z,26.5
2019-03-27T12:17:36.442Z,26.6
2019-03-27T12:18:38.921Z,26.6
2019-03-27T12:19:41.124Z,26.5
2019-03-27T12:20:43.595Z,26.8
2019-03-27T12:21:49.067Z,26.7
2019-03-27T12:22:57.426Z,26.8
2019-03-27T12:23:56.226Z,26.4
2019-03-27T12:24:58.166Z,26.6
2019-03-27T12:26:00.106Z,26.4
2019-03-27T12:27:02.590Z,26.7
2019-03-27T12:28:05.079Z,26.5
2019-03-27T12:29:07.365Z,26.7
2019-03-27T12:30:09.326Z,26.6
2019-03-27T12:31:11.505Z,26.6
2019-03-27T12:32:13.709Z,26.6
2019-03-27T12:33:16.181Z,26.6
2019-03-27T12:34:18.683Z,26.5
2019-03-27T12:35:20.617Z,26.7
2019-03-27T12:36:22.800Z,26.8
2019-03-27T12:37:25.282Z,26.6
2019-03-27T12:38:27.763Z,26.9
2019-03-27T12:39:30.292Z,26.8
2019-03-27T12:40:32.769Z,26.8
2019-03-27T12:41:34.972Z,26.7
2019-03-27T12:42:36.903Z,26.6
2019-03-27T12:43:39.376Z,26.5
2019-03-27T12:44:41.867Z,26.7
2019-03-27T12:45:44.358Z,26.7
2019-03-27T12:46:46.832Z,26.8
2019-03-27T12:47:53.770Z,26.8
2019-03-27T12:48:55.965Z,26.5
2019-03-27T12:49:58.442Z,26.7
2019-03-27T12:51:11.938Z,26.8
2019-03-27T12:52:05.854Z,26.7
2019-03-27T12:53:08.333Z,26.6
2019-03-27T12:54:10.875Z,26.6
2019-03-27T12:55:13.353Z,26.7
2019-03-27T12:56:15.831Z,26.6
2019-03-27T12:57:18.304Z,26.7
2019-03-27T12:58:20.778Z,26.4
2019-03-27T12:59:22.979Z,26.7
2019-03-27T13:00:25.454Z,26.9
2019-03-27T13:01:27.425Z,26.7
2019-03-27T13:02:29.921Z,26.7
2019-03-27T13:03:32.126Z,26.7
2019-03-27T13:04:34.624Z,26.7
2019-03-27T13:05:36.893Z,26.6
2019-03-27T13:06:39.406Z,26.7
2019-03-27T13:07:49.644Z,26.8
2019-03-27T13:08:49.321Z,26.8
2019-03-27T13:09:51.707Z,26.7
2019-03-27T13:10:53.948Z,26.6
2019-03-27T13:11:56.459Z,26.7
2019-03-27T13:12:58.386Z,26.7
2019-03-27T13:14:00.853Z,26.6
2019-03-27T13:15:02.756Z,26.8
2019-03-27T13:16:05.218Z,26.7
2019-03-27T13:17:07.697Z,26.6
2019-03-27T13:18:09.912Z,26.7
2019-03-27T13:19:12.392Z,26.7
2019-03-27T13:20:14.908Z,26.7
2019-03-27T13:21:25.988Z,26.7
2019-03-27T13:22:22.101Z,26.8
2019-03-27T13:23:24.581Z,26.9
2019-03-27T13:24:27.089Z,26.5
2019-03-27T13:25:29.284Z,26.9
2019-03-27T13:26:31.764Z,26.8
2019-03-27T13:27:34.244Z,27.1
2019-03-27T13:28:48.075Z,26.8
2019-03-27T13:29:41.739Z,26.9
2019-03-27T13:30:44.215Z,26.9
2019-03-27T13:31:46.699Z,26.8
2019-03-27T13:32:49.175Z,26.8
2019-03-27T13:33:51.641Z,26.8
2019-03-27T13:34:54.120Z,26.8
2019-03-27T13:35:56.613Z,26.8
2019-03-27T13:36:59.078Z,26.7
2019-03-27T13:38:01.557Z,26.7
2019-03-27T13:39:03.750Z,26.9
2019-03-27T13:40:06.238Z,26.8
2019-03-27T13:41:08.712Z,26.6
2019-03-27T13:42:10.903Z,26.9
2019-03-27T13:43:13.420Z,26.7
2019-03-27T13:44:15.899Z,26.6
2019-03-27T13:45:18.122Z,26.7
2019-03-27T13:46:20.602Z,26.9
2019-03-27T13:47:22.819Z,27
2019-03-27T13:48:25.287Z,26.8
2019-03-27T13:49:27.762Z,26.7
2019-03-27T13:50:30.013Z,27
2019-03-27T13:51:40.198Z,26.6
2019-03-27T13:52:37.486Z,27.1
2019-03-27T13:53:39.663Z,26.7
2019-03-27T13:54:41.859Z,26.7
2019-03-27T13:55:44.322Z,26.8
2019-03-27T13:56:46.531Z,26.9
2019-03-27T13:57:48.170Z,26.7
2019-03-27T13:58:50.707Z,26.8
2019-03-27T13:59:53.199Z,26.7